Estación Meteorológica Peña el Pijo (Robertgarden) [ 01/30/23 15:36:11 CET ]

Fecha Hora Presion(HPa) Temp (°C) Humedad % Rocio (°C) Viento ( m/s) Direccion Lluvia 1Hora(mm) Lluvia 24H(mm) LLuvia Total(mm)
2012-Apr-02 01:01:16 1000.700 6.9 87 4.9         155.40
2012-Apr-02 02:01:12 1000.800 5.9 88 4.1         155.40
2012-Apr-02 03:03:16 1000.600 5.3 88 3.5         155.40
2012-Apr-02 04:01:16 1000.300 4.8 89 3.1         155.40
2012-Apr-02 05:01:12 999.900 4.6 90 3.1         155.40
2012-Apr-02 06:01:17 999.600 4.5 90 3.0         155.40
2012-Apr-02 07:01:14 999.700 4.1 90 2.6         155.40
2012-Apr-02 08:01:14 999.900 3.8 91 2.5         155.40
2012-Apr-02 09:01:14 1000.100 4.9 92 3.7         155.40
2012-Apr-02 10:01:12 999.900 7.9 91 6.5         155.40
2012-Apr-02 11:01:14 1000.200 11.3 81 8.2         155.40
2012-Apr-02 12:01:15 1000.300 13.9 64 7.2         155.40
2012-Apr-02 13:01:16 999.700 14.9 56 6.7         155.40
2012-Apr-02 14:01:22 999.500 13.6 63 6.7         155.40
2012-Apr-02 15:01:16 999.200 13.6 61 6.2         155.40
2012-Apr-02 16:01:15 998.500 14.3 58 6.2         155.40
2012-Apr-02 17:01:22 998.400 13.6 58 5.5 1.7 NNE     155.40
2012-Apr-02 18:01:22 998.700 9.8 79 6.3         155.40
2012-Apr-02 19:01:12 998.900 9.2 82 6.2         155.40
2012-Apr-02 20:01:13 999.200 8.8 85 6.4         155.40
2012-Apr-02 21:01:14 999.200 8.1 87 6.1         155.40
2012-Apr-02 22:01:13 999.900 7.6 89 5.9         155.40
2012-Apr-02 23:01:16 1000.500 7.3 90 5.8         155.40

Temperatura Máxima:14°    Temperatura Mínima:
Presión Máxima:1000.800 Hpa    Presión Mínima:998.400 Hpa


Volver